Time;durP1;ratioP1;P1;durP2;ratioP2;P2;SDS_P1;SDS_P2;PMS_P1;PMS_P2;Temp;Humidity;BMP_temperature;BMP_pressure;BME280_temperature;BME280_humidity;BME280_pressure;Samples;Min_cycle;Max_cycle;Signal;HPM_P1;HPM_P2
2022/12/04 00:01:38;;;;;;;83.03;32.67;;;;;;;1.97;76.48;99042.94;5050567;28;20528;-76
2022/12/04 00:04:05;;;;;;;74.72;31.77;;;;;;;1.94;76.73;99046.09;5050760;28;20082;-76
2022/12/04 00:06:32;;;;;;;66.57;29.80;;;;;;;1.93;76.16;99044.44;5050746;28;20021;-76
2022/12/04 00:08:58;;;;;;;73.80;30.52;;;;;;;1.91;76.02;99038.44;5049742;28;20032;-76
2022/12/04 00:11:27;;;;;;;82.13;34.05;;;;;;;1.91;76.54;99050.09;5049533;28;20420;-76
2022/12/04 00:13:53;;;;;;;81.85;31.92;;;;;;;1.91;76.36;99041.16;5051000;28;20505;-77
2022/12/04 00:16:21;;;;;;;74.97;30.92;;;;;;;1.94;76.23;99054.22;5050263;28;20037;-76
2022/12/04 00:18:46;;;;;;;73.45;30.00;;;;;;;1.98;76.12;99043.78;5049626;28;20027;-76
2022/12/04 00:21:14;;;;;;;78.45;31.10;;;;;;;1.97;75.98;99040.25;5050444;28;20025;-76
2022/12/04 00:23:40;;;;;;;71.07;29.63;;;;;;;1.96;76.91;99035.88;5050202;28;20033;-76
2022/12/04 00:26:09;;;;;;;65.47;29.27;;;;;;;1.96;76.70;99048.59;5050386;28;20033;-76
2022/12/04 00:28:35;;;;;;;69.60;28.95;;;;;;;1.96;76.50;99040.47;5049605;28;20052;-76
2022/12/04 00:31:05;;;;;;;65.45;27.77;;;;;;;1.94;76.94;99051.50;5050262;28;20103;-76
2022/12/04 00:33:30;;;;;;;66.80;28.67;;;;;;;1.91;76.09;99041.16;5050677;28;20025;-76
2022/12/04 00:36:01;;;;;;;68.57;29.60;;;;;;;1.87;75.81;99039.94;5050135;28;20021;-76
2022/12/04 00:38:27;;;;;;;66.13;27.92;;;;;;;1.89;76.67;99043.25;5048791;28;20025;-76
2022/12/04 00:40:52;;;;;;;64.50;27.15;;;;;;;1.87;76.72;99043.47;5049848;28;20550;-77
2022/12/04 00:43:19;;;;;;;57.47;25.58;;;;;;;1.87;76.46;99050.75;5049603;28;20567;-77
2022/12/04 00:45:44;;;;;;;60.13;25.50;;;;;;;1.84;76.83;99048.50;5050191;28;20055;-77
2022/12/04 00:48:10;;;;;;;58.13;26.40;;;;;;;1.83;76.42;99041.47;5050070;28;20049;-76
2022/12/04 00:50:36;;;;;;;63.33;26.63;;;;;;;1.81;76.48;99038.97;5053193;28;20100;-77
2022/12/04 00:53:01;;;;;;;65.40;27.42;;;;;;;1.80;76.23;99039.22;5051463;28;20391;-76
2022/12/04 00:55:28;;;;;;;63.42;25.98;;;;;;;1.80;76.06;99036.50;5052875;28;20032;-77
2022/12/04 00:57:53;;;;;;;61.33;27.40;;;;;;;1.76;76.47;99026.13;5051370;28;20418;-78
2022/12/04 01:00:19;;;;;;;60.83;26.75;;;;;;;1.74;75.97;99030.94;5052079;28;20032;-77
2022/12/04 01:02:44;;;;;;;58.78;25.05;;;;;;;1.75;75.97;99029.88;5050978;28;20031;-78
2022/12/04 01:05:10;;;;;;;56.25;25.23;;;;;;;1.74;76.71;99022.81;5052211;28;20052;-78
2022/12/04 01:07:36;;;;;;;57.80;25.98;;;;;;;1.72;76.89;99021.38;5052617;28;20375;-78
2022/12/04 01:10:05;;;;;;;58.50;26.08;;;;;;;1.70;76.32;99021.63;5051044;28;20025;-77
2022/12/04 01:12:30;;;;;;;63.45;27.05;;;;;;;1.67;76.79;99027.47;5052498;28;20017;-78
2022/12/04 01:14:55;;;;;;;55.03;24.30;;;;;;;1.65;76.74;99016.03;5052526;28;20607;-77
2022/12/04 01:17:21;;;;;;;59.45;26.20;;;;;;;1.61;76.61;99014.84;5052479;28;20106;-77
2022/12/04 01:19:46;;;;;;;61.85;25.85;;;;;;;1.57;76.29;99013.63;5050858;28;20021;-77
2022/12/04 01:22:12;;;;;;;56.17;25.65;;;;;;;1.51;76.45;99009.13;5052302;28;20032;-78
2022/12/04 01:24:38;;;;;;;58.97;26.02;;;;;;;1.49;76.64;99014.75;5051910;28;20373;-77
2022/12/04 01:27:03;;;;;;;61.00;27.17;;;;;;;1.46;76.44;99010.59;5050491;28;20401;-78
2022/12/04 01:29:28;;;;;;;61.70;27.17;;;;;;;1.43;76.94;99002.94;5051809;28;20043;-78
2022/12/04 01:31:54;;;;;;;64.88;27.30;;;;;;;1.42;76.62;99000.47;5052104;28;20037;-78
2022/12/04 01:34:19;;;;;;;59.10;26.67;;;;;;;1.36;76.90;99004.91;5052248;28;20020;-77
2022/12/04 01:36:44;;;;;;;64.38;26.40;;;;;;;1.36;76.19;99010.31;5051366;28;20641;-77
2022/12/04 01:39:10;;;;;;;64.88;27.77;;;;;;;1.36;76.95;99009.47;5051295;28;20021;-77
2022/12/04 01:41:35;;;;;;;65.05;27.83;;;;;;;1.36;76.46;99007.59;5051492;28;20021;-78
2022/12/04 01:44:17;;;;;;;63.88;28.80;;;;;;;1.37;76.94;99001.16;5051376;28;20041;-78
2022/12/04 01:46:49;;;;;;;63.72;26.42;;;;;;;1.36;76.83;99002.19;5050919;28;20017;-78
2022/12/04 01:49:43;;;;;;;64.40;26.67;;;;;;;1.31;76.52;99010.97;5048735;28;20056;-77
2022/12/04 01:52:17;;;;;;;63.88;27.02;;;;;;;1.31;76.63;99004.75;5049592;28;20041;-77
2022/12/04 01:54:50;;;;;;;59.83;25.75;;;;;;;1.31;76.81;99010.97;5050213;28;20052;-78
2022/12/04 01:57:20;;;;;;;59.53;26.33;;;;;;;1.33;76.90;98997.25;5051411;28;20099;-77
2022/12/04 01:59:59;;;;;;;58.78;24.92;;;;;;;1.31;77.20;98988.53;5050447;28;20013;-78
2022/12/04 02:02:33;;;;;;;61.67;25.35;;;;;;;1.31;77.02;98996.63;5049795;28;20028;-78
2022/12/04 02:05:01;;;;;;;61.20;26.25;;;;;;;1.30;76.72;98989.56;5050258;28;20059;-78
2022/12/04 02:07:27;;;;;;;66.20;27.27;;;;;;;1.28;76.86;98987.06;5051273;28;20051;-78
2022/12/04 02:09:54;;;;;;;64.13;26.38;;;;;;;1.29;77.22;98993.31;5050750;28;20027;-77
2022/12/04 02:12:46;;;;;;;61.72;26.55;;;;;;;1.26;77.04;98981.06;5051156;28;20021;-78
2022/12/04 02:15:14;;;;;;;62.75;26.63;;;;;;;1.26;76.73;98991.06;5050987;28;20067;-78
2022/12/04 02:17:39;;;;;;;66.47;28.60;;;;;;;1.25;77.43;98994.81;5051006;28;20032;-78
2022/12/04 02:20:14;;;;;;;61.97;25.98;;;;;;;1.24;76.92;98988.56;5047930;28;20036;-78
2022/12/04 02:23:06;;;;;;;65.15;28.02;;;;;;;1.19;76.88;98985.72;5049900;28;20025;-78
2022/12/04 02:26:00;;;;;;;65.25;26.15;;;;;;;1.15;77.05;98988.03;5050070;28;20115;-78
2022/12/04 02:28:39;;;;;;;61.85;27.88;;;;;;;1.14;77.27;98991.78;5048466;28;20052;-77
2022/12/04 02:31:11;;;;;;;66.25;27.80;;;;;;;1.15;77.53;98992.63;5051237;28;20028;-77
2022/12/04 02:33:45;;;;;;;61.03;27.15;;;;;;;1.16;77.97;98986.97;5051079;28;20028;-78
2022/12/04 02:36:18;;;;;;;68.35;29.15;;;;;;;1.16;77.17;98994.28;5050292;28;20060;-78
2022/12/04 02:38:54;;;;;;;63.30;28.13;;;;;;;1.16;77.24;98988.88;5050923;28;20044;-78
2022/12/04 02:41:26;;;;;;;64.30;28.02;;;;;;;1.13;77.71;98979.31;5050372;28;20016;-77
2022/12/04 02:44:00;;;;;;;59.88;26.70;;;;;;;1.13;77.25;98978.50;5049116;28;20029;-78
2022/12/04 02:46:47;;;;;;;61.60;27.08;;;;;;;1.15;77.22;98979.91;5050930;28;20025;-78
2022/12/04 02:49:51;;;;;;;59.53;26.25;;;;;;;1.17;77.15;98977.84;5049129;28;20108;-78
2022/12/04 02:52:21;;;;;;;60.40;27.38;;;;;;;1.21;77.73;98980.94;5049163;28;20052;-78
2022/12/04 02:54:50;;;;;;;;;;;;;;;1.27;77.56;98982.72;5049864;28;20028;-78
2022/12/04 02:57:21;;;;;;;58.15;25.40;;;;;;;1.28;77.29;98978.97;5050643;28;20335;-78
2022/12/04 02:59:49;;;;;;;58.50;26.60;;;;;;;1.25;76.99;98974.00;5050423;28;20029;-78
2022/12/04 03:02:23;;;;;;;58.38;26.05;;;;;;;1.25;77.68;98984.00;5050900;28;20563;-78
2022/12/04 03:04:50;;;;;;;62.33;27.48;;;;;;;1.25;77.69;98986.72;5050359;28;20037;-77
2022/12/04 03:07:54;;;;;;;54.58;25.17;;;;;;;1.26;77.29;98977.56;5050882;28;20036;-78
2022/12/04 03:10:27;;;;;;;60.47;27.02;;;;;;;1.29;77.15;98974.41;5047278;28;20029;-77
2022/12/04 03:13:05;;;;;;;57.50;25.90;;;;;;;1.28;77.31;98973.56;5049673;28;20025;-78
2022/12/04 03:15:39;;;;;;;57.63;25.30;;;;;;;1.26;77.46;98977.56;5048960;28;20362;-77
2022/12/04 03:18:17;;;;;;;56.67;25.75;;;;;;;1.26;77.35;98978.38;5049758;28;20029;-77
2022/12/04 03:20:46;;;;;;;60.80;26.58;;;;;;;1.27;77.66;98973.81;5050196;28;20032;-78
2022/12/04 03:23:17;;;;;;;56.45;26.75;;;;;;;1.26;77.62;98975.66;5049866;28;20083;-77
2022/12/04 03:25:57;;;;;;;57.08;24.92;;;;;;;1.25;77.38;98973.19;5050065;28;20025;-77
2022/12/04 03:28:33;;;;;;;55.92;25.67;;;;;;;1.25;77.52;98976.72;5049711;28;20670;-77
2022/12/04 03:31:05;;;;;;;58.67;26.27;;;;;;;1.22;77.63;98965.53;5048705;28;20549;-78
2022/12/04 03:33:39;;;;;;;62.03;26.48;;;;;;;1.21;77.39;98966.56;5049914;28;20025;-78
2022/12/04 03:36:30;;;;;;;53.95;24.83;;;;;;;1.17;77.60;98953.50;5050285;28;20040;-79
2022/12/04 03:39:20;;;;;;;54.08;23.70;;;;;;;1.17;77.60;98961.63;5047832;28;20366;-78
2022/12/04 03:42:12;;;;;;;53.25;24.73;;;;;;;1.19;77.80;98956.00;5049030;28;20053;-78
2022/12/04 03:44:42;;;;;;;53.20;26.42;;;;;;;1.23;77.87;98956.38;5048268;28;20595;-77
2022/12/04 03:47:13;;;;;;;50.42;22.67;;;;;;;1.27;77.36;98957.59;5049726;28;20031;-78
2022/12/04 03:49:42;;;;;;;59.47;24.40;;;;;;;1.29;77.60;98959.00;5049266;28;20485;-78
2022/12/04 03:52:31;;;;;;;48.33;22.75;;;;;;;1.32;77.47;98958.56;5049532;28;20052;-78
2022/12/04 03:55:03;;;;;;;50.63;22.95;;;;;;;1.33;77.62;98957.50;5041544;28;20048;-77
2022/12/04 03:57:33;;;;;;;50.10;22.88;;;;;;;1.36;77.84;98955.41;5048105;28;20543;-78
2022/12/04 04:00:11;;;;;;;48.20;22.45;;;;;;;1.43;77.63;98962.41;5047749;28;20067;-77
2022/12/04 04:02:43;;;;;;;50.33;23.38;;;;;;;1.45;77.73;98960.28;5049708;28;20115;-78
2022/12/04 04:05:11;;;;;;;48.60;22.45;;;;;;;1.45;78.25;98959.47;5049508;28;20021;-78
2022/12/04 04:07:51;;;;;;;50.05;22.38;;;;;;;1.45;77.57;98968.41;5049889;28;20067;-77
2022/12/04 04:10:21;;;;;;;45.20;21.42;;;;;;;1.46;77.39;98961.94;5049365;28;20104;-78
2022/12/04 04:24:13;;;;;;;;;;;;;;;1.47;77.38;98958.19;5050261;28;20025;-77
2022/12/04 04:24:15;;;;;;;50.00;23.83;;;;;;;1.53;78.07;98963.75;5053737;28;20456;-78
2022/12/04 04:26:48;;;;;;;46.28;21.83;;;;;;;1.53;77.67;98958.34;5053779;28;20090;-78
2022/12/04 04:29:13;;;;;;;48.50;22.40;;;;;;;1.54;78.09;98968.97;5053578;28;20382;-78
2022/12/04 04:31:50;;;;;;;48.50;22.52;;;;;;;1.56;77.60;98969.56;5053027;28;20029;-77
2022/12/04 04:34:38;;;;;;;48.70;21.70;;;;;;;1.58;77.11;98963.91;5053188;28;20112;-77
2022/12/04 04:37:26;;;;;;;49.50;22.35;;;;;;;1.60;77.79;98972.63;5053848;28;20493;-78
2022/12/04 04:40:12;;;;;;;48.60;21.73;;;;;;;1.59;77.38;98973.69;5053694;28;20036;-78
2022/12/04 04:42:58;;;;;;;49.35;23.38;;;;;;;1.60;78.02;98970.78;5052971;28;20420;-78
2022/12/04 04:45:37;;;;;;;47.10;21.83;;;;;;;1.59;77.61;98971.81;5054310;28;20033;-78
2022/12/04 04:48:12;;;;;;;49.75;21.95;;;;;;;1.60;77.55;98965.38;5052999;28;20059;-77
2022/12/04 04:50:38;;;;;;;44.08;20.95;;;;;;;1.59;77.55;98969.13;5052846;28;20033;-78
2022/12/04 04:53:08;;;;;;;51.72;23.55;;;;;;;1.58;77.35;98963.91;5053082;28;20037;-77
2022/12/04 04:55:35;;;;;;;48.78;22.58;;;;;;;1.59;77.04;98971.81;5051845;28;20431;-77
2022/12/04 04:58:19;;;;;;;45.28;20.55;;;;;;;1.57;77.78;98957.69;5051213;28;20049;-77
2022/12/04 05:00:54;;;;;;;50.55;21.58;;;;;;;1.55;77.24;98958.97;5053063;28;20032;-77
2022/12/04 05:03:19;;;;;;;48.70;20.98;;;;;;;1.53;77.29;98964.59;5053049;28;20146;-77
2022/12/04 05:05:45;;;;;;;47.42;21.63;;;;;;;1.53;77.42;98956.50;5053049;28;20051;-77
2022/12/04 05:08:10;;;;;;;49.03;21.65;;;;;;;1.51;77.68;98968.56;5051970;28;20057;-77
2022/12/04 05:10:35;;;;;;;48.17;21.23;;;;;;;1.50;77.22;98959.63;5052905;28;20796;-77
2022/12/04 05:13:01;;;;;;;47.53;22.20;;;;;;;1.53;77.42;98969.16;5052590;28;20057;-77
2022/12/04 05:15:26;;;;;;;47.35;21.95;;;;;;;1.55;77.33;98965.19;5052913;28;20036;-77
2022/12/04 05:17:51;;;;;;;46.42;21.45;;;;;;;1.57;77.54;98968.50;5050458;28;20130;-77
2022/12/04 05:20:17;;;;;;;44.30;21.23;;;;;;;1.55;77.64;98967.06;5052404;28;20029;-77
2022/12/04 05:22:42;;;;;;;46.25;21.55;;;;;;;1.54;77.16;98958.16;5052468;28;20036;-77
2022/12/04 05:25:09;;;;;;;45.33;22.30;;;;;;;1.55;77.24;98961.66;5052545;28;20025;-77
2022/12/04 05:27:35;;;;;;;44.55;21.38;;;;;;;1.57;77.98;98967.66;5052022;28;20025;-77
2022/12/04 05:30:00;;;;;;;49.97;22.42;;;;;;;1.58;76.88;98961.22;5052012;28;20366;-77
2022/12/04 05:32:28;;;;;;;44.95;21.58;;;;;;;1.58;77.21;98964.75;5052540;28;20123;-77
2022/12/04 05:34:55;;;;;;;47.20;21.98;;;;;;;1.61;77.34;98963.47;5051135;28;20075;-77
2022/12/04 05:37:21;;;;;;;47.13;21.83;;;;;;;1.60;77.94;98961.81;5052337;28;20040;-77
2022/12/04 05:39:46;;;;;;;50.30;23.95;;;;;;;1.61;77.68;98971.56;5051455;28;20021;-77
2022/12/04 05:42:13;;;;;;;49.00;23.10;;;;;;;1.65;77.82;98970.09;5051899;28;20029;-77
2022/12/04 05:44:38;;;;;;;45.38;21.70;;;;;;;1.66;77.81;98976.31;5052095;28;20485;-77
2022/12/04 05:47:05;;;;;;;41.08;21.33;;;;;;;1.67;77.39;98969.84;5052211;28;20028;-77
2022/12/04 05:49:32;;;;;;;45.90;21.38;;;;;;;1.67;77.74;98967.97;5051187;28;20043;-77
2022/12/04 05:51:57;;;;;;;43.58;20.45;;;;;;;1.67;77.79;98975.25;5052115;28;20067;-78
2022/12/04 05:54:23;;;;;;;41.40;20.38;;;;;;;1.64;77.33;98955.72;5052231;28;20473;-77
2022/12/04 05:56:49;;;;;;;44.35;20.83;;;;;;;1.63;77.48;98964.88;5051973;28;20082;-77
2022/12/04 05:59:15;;;;;;;46.65;20.40;;;;;;;1.63;77.02;98962.19;5050755;28;20315;-77
2022/12/04 06:01:41;;;;;;;44.65;20.52;;;;;;;1.65;77.32;98964.66;5051829;28;20039;-76
2022/12/04 06:04:06;;;;;;;41.67;20.17;;;;;;;1.62;77.17;98981.34;5050685;28;20116;-77
2022/12/04 06:06:32;;;;;;;46.00;21.38;;;;;;;1.59;77.82;98977.22;5051793;28;20749;-77
2022/12/04 06:08:59;;;;;;;42.85;19.98;;;;;;;1.57;77.13;98973.91;5050763;28;20108;-77
2022/12/04 06:11:30;;;;;;;44.70;20.00;;;;;;;1.54;77.78;98974.38;5051616;28;20056;-77
2022/12/04 06:13:56;;;;;;;38.40;19.15;;;;;;;1.55;78.14;98975.19;5051712;28;20090;-77
2022/12/04 06:16:27;;;;;;;43.47;19.52;;;;;;;1.55;77.29;98975.19;5051246;28;20378;-77
2022/12/04 06:18:56;;;;;;;43.33;18.83;;;;;;;1.52;77.30;98970.22;5050631;28;20035;-78
2022/12/04 06:21:23;;;;;;;42.13;19.33;;;;;;;1.48;77.71;98976.06;5051827;28;20029;-77
2022/12/04 06:23:50;;;;;;;40.83;18.77;;;;;;;1.47;77.84;98979.81;5051403;28;20112;-78
2022/12/04 06:26:16;;;;;;;41.65;20.15;;;;;;;1.52;78.23;98981.03;5050399;28;20136;-77
2022/12/04 06:28:41;;;;;;;42.47;19.48;;;;;;;1.53;78.33;98982.69;5050951;28;20679;-77
2022/12/04 06:31:09;;;;;;;40.70;19.52;;;;;;;1.56;78.10;98985.78;5051209;28;20025;-77
2022/12/04 06:33:35;;;;;;;42.28;20.10;;;;;;;1.61;78.04;98979.69;5050481;28;20039;-77
2022/12/04 06:36:03;;;;;;;41.53;19.88;;;;;;;1.65;78.39;98986.31;5052142;28;20025;-77
2022/12/04 06:38:29;;;;;;;37.80;16.85;;;;;;;1.59;77.64;98979.94;5051213;28;20024;-77
2022/12/04 06:40:55;;;;;;;38.58;18.52;;;;;;;1.54;77.93;98987.88;5051284;28;20040;-77
2022/12/04 06:43:21;;;;;;;37.67;17.88;;;;;;;1.51;77.63;98991.03;5051307;28;20580;-76
2022/12/04 06:45:46;;;;;;;39.83;18.58;;;;;;;1.46;77.72;98983.56;5051728;28;20116;-77
2022/12/04 06:48:11;;;;;;;32.40;17.02;;;;;;;1.45;77.85;98987.31;5051320;28;20362;-78
2022/12/04 06:50:37;;;;;;;35.72;19.02;;;;;;;1.44;77.53;98982.97;5051637;28;20025;-77
2022/12/04 06:53:02;;;;;;;32.75;17.77;;;;;;;1.46;78.35;98988.16;5051333;28;20059;-77
2022/12/04 06:55:28;;;;;;;42.00;22.58;;;;;;;1.45;77.60;98986.50;5051703;28;20025;-77
2022/12/04 06:57:53;;;;;;;44.67;25.70;;;;;;;1.46;78.00;98991.69;5051638;28;20060;-77
2022/12/04 07:00:18;;;;;;;61.88;40.72;;;;;;;1.48;78.20;98995.00;5050799;28;20031;-77
2022/12/04 07:02:44;;;;;;;60.25;35.30;;;;;;;1.52;78.23;98995.38;5050985;28;20426;-77
2022/12/04 07:05:09;;;;;;;61.90;34.95;;;;;;;1.53;78.05;98998.91;5051340;28;20359;-78
2022/12/04 07:07:35;;;;;;;136.00;84.80;;;;;;;1.53;78.55;98993.50;5051315;28;20029;-77
2022/12/04 07:10:02;;;;;;;68.30;37.85;;;;;;;1.53;78.40;98996.19;5050855;28;20060;-77
2022/12/04 07:12:27;;;;;;;113.20;65.53;;;;;;;1.57;77.68;98992.00;5050925;28;20500;-77
2022/12/04 07:14:53;;;;;;;82.28;48.45;;;;;;;1.58;77.98;98993.66;5051063;28;20108;-77
2022/12/04 07:17:18;;;;;;;78.90;45.58;;;;;;;1.60;78.53;98994.25;5051539;28;20032;-78
2022/12/04 07:19:43;;;;;;;47.75;26.50;;;;;;;1.61;78.58;98990.50;5050280;28;20041;-76
2022/12/04 07:22:10;;;;;;;43.30;23.27;;;;;;;1.61;77.99;98982.41;5050527;28;20090;-77
2022/12/04 07:24:37;;;;;;;42.15;19.92;;;;;;;1.62;78.40;98992.16;5051020;28;20032;-77
2022/12/04 07:27:03;;;;;;;36.95;18.63;;;;;;;1.64;77.75;98993.56;5051048;28;20033;-77
2022/12/04 07:29:28;;;;;;;35.63;19.77;;;;;;;1.66;78.39;98989.81;5050333;28;20158;-77
2022/12/04 07:31:54;;;;;;;34.63;17.52;;;;;;;1.68;77.96;98990.41;5049915;28;20567;-77
2022/12/04 07:34:19;;;;;;;38.80;20.33;;;;;;;1.67;78.04;98999.59;5049550;28;20495;-76
2022/12/04 07:36:44;;;;;;;37.90;19.67;;;;;;;1.71;78.59;98998.09;5050338;28;20488;-77
2022/12/04 07:39:10;;;;;;;44.60;22.00;;;;;;;1.74;77.93;99001.19;5050315;28;20040;-77
2022/12/04 07:41:35;;;;;;;50.97;24.35;;;;;;;1.78;77.91;98996.16;5050392;28;20116;-77
2022/12/04 07:44:01;;;;;;;48.67;23.38;;;;;;;1.75;78.57;98997.44;5049218;28;20087;-77
2022/12/04 07:46:27;;;;;;;45.38;21.52;;;;;;;1.75;78.01;99002.84;5050612;28;20374;-77
2022/12/04 07:48:57;;;;;;;50.08;23.23;;;;;;;1.74;78.17;99003.88;5050175;28;20021;-77
2022/12/04 07:51:25;;;;;;;43.40;22.02;;;;;;;1.77;78.09;99005.31;5050602;28;20025;-77
2022/12/04 07:53:52;;;;;;;45.85;21.17;;;;;;;1.77;78.04;99014.25;5050043;28;20049;-77
2022/12/04 07:56:18;;;;;;;52.38;24.50;;;;;;;1.79;78.59;99022.13;5049264;28;20028;-77
2022/12/04 07:58:44;;;;;;;56.53;25.23;;;;;;;1.85;78.07;99020.41;5049526;28;20036;-78
2022/12/04 08:01:15;;;;;;;69.57;30.42;;;;;;;1.87;78.38;99012.88;5050447;28;20493;-77
2022/12/04 08:03:43;;;;;;;98.57;42.30;;;;;;;1.87;78.04;99021.84;5049649;28;20075;-77
2022/12/04 08:06:08;;;;;;;108.80;45.72;;;;;;;1.90;78.43;99015.97;5050561;28;20037;-77
2022/12/04 08:08:35;;;;;;;130.88;52.80;;;;;;;1.91;78.40;99022.22;5049854;28;20393;-77
2022/12/04 08:11:04;;;;;;;175.43;68.55;;;;;;;1.92;78.53;99023.88;5050128;28;20041;-77
2022/12/04 08:13:29;;;;;;;100.15;40.90;;;;;;;1.94;78.24;99021.75;5049678;28;20033;-77
2022/12/04 08:15:54;;;;;;;74.57;31.85;;;;;;;1.95;78.92;99012.59;5050264;28;20029;-77
2022/12/04 08:18:20;;;;;;;69.35;30.02;;;;;;;1.98;78.90;99005.91;5049882;28;20033;-77
2022/12/04 08:20:45;;;;;;;65.25;29.80;;;;;;;2.00;78.37;99012.75;5049985;28;20024;-77
2022/12/04 08:23:10;;;;;;;60.83;28.70;;;;;;;2.03;78.11;99004.19;5050115;28;20499;-77
2022/12/04 08:25:40;;;;;;;68.20;32.25;;;;;;;2.07;78.36;99007.25;5050228;28;20029;-77
2022/12/04 08:28:06;;;;;;;66.10;31.58;;;;;;;2.07;78.95;98997.25;5048899;28;20037;-77
2022/12/04 08:30:33;;;;;;;60.53;29.52;;;;;;;2.06;78.32;99006.44;5049464;28;20028;-77
2022/12/04 08:32:59;;;;;;;54.75;26.20;;;;;;;2.07;78.33;99004.53;5049646;28;20051;-77
2022/12/04 08:35:25;;;;;;;58.05;28.20;;;;;;;2.12;78.81;99001.97;5049071;28;20104;-77
2022/12/04 08:37:51;;;;;;;59.55;27.42;;;;;;;2.17;79.32;99012.94;5048207;28;20029;-77
2022/12/04 08:40:16;;;;;;;57.08;27.77;;;;;;;2.22;78.54;99013.09;5046952;28;20037;-77
2022/12/04 08:42:42;;;;;;;54.72;26.20;;;;;;;2.26;79.14;99008.03;5048863;28;20025;-77
2022/12/04 08:45:08;;;;;;;57.60;30.20;;;;;;;2.26;79.07;99010.75;5048184;28;20078;-76
2022/12/04 08:47:33;;;;;;;51.20;25.45;;;;;;;2.30;78.98;99013.84;5049013;28;20566;-77
2022/12/04 08:49:59;;;;;;;65.60;34.08;;;;;;;2.32;79.20;99004.44;5048202;28;20025;-77
2022/12/04 08:52:24;;;;;;;73.35;42.50;;;;;;;2.35;78.66;99003.97;5048538;28;20048;-76
2022/12/04 08:54:50;;;;;;;61.33;36.63;;;;;;;2.39;79.00;99009.78;5047018;28;20031;-77
2022/12/04 08:57:15;;;;;;;57.20;32.03;;;;;;;2.42;78.82;99014.72;5048157;28;20023;-76
2022/12/04 08:59:41;;;;;;;65.18;34.80;;;;;;;2.45;78.40;99018.84;5047665;28;20021;-77
2022/12/04 09:02:09;;;;;;;60.08;31.38;;;;;;;2.46;78.88;99015.09;5048181;28;20029;-76
2022/12/04 09:04:35;;;;;;;60.78;30.63;;;;;;;2.49;78.74;99023.56;5047577;28;20056;-77
2022/12/04 09:07:00;;;;;;;65.68;33.42;;;;;;;2.54;78.95;99020.19;5047608;28;20465;-77
2022/12/04 09:09:26;;;;;;;61.72;31.38;;;;;;;2.58;79.23;99018.69;5048509;28;20056;-76
2022/12/04 09:11:51;;;;;;;57.50;30.42;;;;;;;2.61;79.16;99025.50;5050094;28;20025;-77
2022/12/04 09:14:24;;;;;;;56.35;29.52;;;;;;;2.62;79.35;99017.16;5051167;28;20032;-76
2022/12/04 09:16:50;;;;;;;58.65;29.05;;;;;;;2.60;79.14;99024.69;5052301;28;20043;-76
2022/12/04 09:19:15;;;;;;;78.72;38.78;;;;;;;2.64;79.25;99035.88;5051370;28;20400;-77
2022/12/04 09:21:41;;;;;;;63.17;31.88;;;;;;;2.68;79.28;99028.94;5052373;28;20079;-76
2022/12/04 09:24:09;;;;;;;67.68;32.58;;;;;;;2.71;79.02;99024.94;5052249;28;20502;-76
2022/12/04 09:26:34;;;;;;;72.43;36.20;;;;;;;2.77;79.18;99029.44;5052123;28;20029;-77
2022/12/04 09:29:02;;;;;;;73.25;36.15;;;;;;;2.82;78.38;99010.59;5051847;28;20530;-76
2022/12/04 09:31:28;;;;;;;69.80;34.10;;;;;;;2.87;78.80;99010.75;5051561;28;20037;-77
2022/12/04 09:33:56;;;;;;;59.83;30.67;;;;;;;2.90;78.72;99013.00;5052038;28;20052;-76
2022/12/04 09:36:22;;;;;;;60.28;30.58;;;;;;;2.91;78.62;99013.81;5051758;28;20028;-76
2022/12/04 09:38:51;;;;;;;59.20;28.20;;;;;;;2.96;78.80;99014.78;5051175;28;20155;-76
2022/12/04 09:41:31;;;;;;;53.65;27.27;;;;;;;3.01;78.41;99016.78;5051948;28;20029;-76
2022/12/04 09:44:26;;;;;;;60.17;29.15;;;;;;;3.07;79.15;99009.59;5050616;28;20025;-77
2022/12/04 09:47:07;;;;;;;54.90;26.48;;;;;;;3.14;78.98;99015.72;5049651;28;20045;-77
2022/12/04 09:49:50;;;;;;;54.20;24.25;;;;;;;3.19;78.71;98999.59;5051303;28;20103;-76
2022/12/04 09:52:31;;;;;;;61.83;28.08;;;;;;;3.24;78.42;98990.78;5051485;28;20053;-77
2022/12/04 09:55:00;;;;;;;60.88;27.15;;;;;;;3.31;78.38;99001.50;5051513;28;20051;-76
2022/12/04 09:57:37;;;;;;;83.13;33.95;;;;;;;3.32;78.78;99000.44;5051213;28;20044;-77
2022/12/04 10:00:05;;;;;;;56.25;26.08;;;;;;;3.38;78.35;98994.06;5050029;28;20084;-77
2022/12/04 10:02:36;;;;;;;53.53;27.42;;;;;;;3.39;78.85;98996.53;5051252;28;20481;-77
2022/12/04 10:05:03;;;;;;;41.15;21.90;;;;;;;3.38;77.84;98988.66;5051311;28;20037;-76
2022/12/04 10:07:38;;;;;;;64.45;28.40;;;;;;;3.37;78.02;98987.00;5050142;28;20018;-76
2022/12/04 10:10:18;;;;;;;70.28;31.20;;;;;;;3.36;78.51;98990.78;5050355;28;20025;-76
2022/12/04 10:13:10;;;;;;;72.85;30.05;;;;;;;3.37;78.28;98985.09;5049470;28;20051;-76
2022/12/04 10:16:04;;;;;;;66.38;30.25;;;;;;;3.43;78.29;98986.06;5048603;28;20378;-76
2022/12/04 10:18:46;;;;;;;62.35;28.45;;;;;;;3.48;78.55;98979.91;5041878;28;20032;-77
2022/12/04 10:21:29;;;;;;;52.10;25.50;;;;;;;3.45;78.46;98980.38;5047117;28;20033;-76
2022/12/04 10:24:18;;;;;;;51.45;24.73;;;;;;;3.46;77.63;98974.75;5048389;28;20300;-77
2022/12/04 10:26:47;;;;;;;53.17;25.38;;;;;;;3.47;77.78;98972.84;5049104;28;20033;-76
2022/12/04 10:29:21;;;;;;;57.65;26.38;;;;;;;3.52;77.97;98972.97;5050080;28;20694;-77
2022/12/04 10:31:50;;;;;;;54.40;25.80;;;;;;;3.58;78.65;98969.31;5050409;28;20119;-77
2022/12/04 10:34:27;;;;;;;57.00;28.73;;;;;;;3.61;77.76;98968.84;5049200;28;20029;-77
2022/12/04 10:36:59;;;;;;;57.05;26.75;;;;;;;3.66;77.66;98960.81;5050752;28;20144;-76
2022/12/04 10:39:34;;;;;;;52.28;26.50;;;;;;;3.67;78.25;98967.84;5049316;28;20029;-76
2022/12/04 10:42:20;;;;;;;57.88;27.83;;;;;;;3.67;77.67;98961.63;5047570;28;20031;-76
2022/12/04 10:44:47;;;;;;;57.70;27.17;;;;;;;3.71;78.50;98954.66;5050422;28;20033;-75
2022/12/04 10:47:13;;;;;;;48.70;26.40;;;;;;;3.69;78.25;98954.88;5050758;28;20033;-76
2022/12/04 10:49:40;;;;;;;44.08;22.45;;;;;;;3.70;77.43;98956.53;5049521;28;20033;-76
2022/12/04 10:52:14;;;;;;;49.83;26.23;;;;;;;3.67;77.84;98956.19;5049457;28;20044;-76
2022/12/04 10:54:52;;;;;;;43.72;23.98;;;;;;;3.66;77.67;98957.25;5050374;28;20032;-76
2022/12/04 10:57:18;;;;;;;43.17;22.83;;;;;;;3.68;78.10;98947.00;5049753;28;20343;-76
2022/12/04 10:59:51;;;;;;;60.30;33.83;;;;;;;3.68;77.86;98949.72;5049039;28;20029;-76
2022/12/04 11:02:21;;;;;;;206.40;105.05;;;;;;;3.69;77.47;98949.44;5049257;28;20056;-76
2022/12/04 11:05:04;;;;;;;175.85;66.28;;;;;;;3.72;77.88;98942.75;5046901;28;20043;-75
2022/12/04 11:07:41;;;;;;;63.83;31.65;;;;;;;3.76;77.58;98937.66;5048679;28;20083;-76
2022/12/04 11:10:22;;;;;;;52.17;27.17;;;;;;;3.76;77.72;98941.19;5048618;28;20113;-76
2022/12/04 11:13:04;;;;;;;99.18;43.10;;;;;;;3.79;78.03;98932.59;5047906;28;20031;-76
2022/12/04 11:15:30;;;;;;;77.80;39.22;;;;;;;3.81;77.41;98932.34;5047249;28;20181;-76
2022/12/04 11:18:07;;;;;;;59.88;30.50;;;;;;;3.82;78.05;98934.81;5047751;28;20546;-75
2022/12/04 11:20:33;;;;;;;47.38;26.45;;;;;;;3.87;77.89;98931.38;5046924;28;20025;-80
2022/12/04 11:22:59;;;;;;;45.95;24.30;;;;;;;3.83;77.26;98922.91;5049723;28;20071;-78
2022/12/04 11:25:43;;;;;;;44.40;23.33;;;;;;;3.85;77.40;98931.63;5049322;28;20074;-77
2022/12/04 11:28:16;;;;;;;48.15;26.08;;;;;;;3.88;77.27;98927.59;5047758;28;21942;-79
2022/12/04 11:31:07;;;;;;;41.30;21.88;;;;;;;3.92;78.02;98927.94;5049034;28;20052;-77
2022/12/04 11:34:06;;;;;;;45.35;23.77;;;;;;;3.96;77.75;98921.78;5047365;28;20044;-77
2022/12/04 11:36:41;;;;;;;48.83;24.70;;;;;;;3.99;77.88;98928.63;5046404;28;20683;-76
2022/12/04 11:39:14;;;;;;;44.50;23.75;;;;;;;4.01;77.31;98929.19;5048449;28;20021;-79
2022/12/04 11:41:40;;;;;;;46.47;25.45;;;;;;;3.96;77.55;98940.78;5049275;28;20505;-78
2022/12/04 11:44:29;;;;;;;51.03;26.83;;;;;;;3.94;77.76;98928.50;5048954;28;20037;-78
2022/12/04 11:46:57;;;;;;;49.15;25.88;;;;;;;3.92;77.30;98936.06;5048513;28;20024;-77
2022/12/04 11:49:29;;;;;;;48.08;25.27;;;;;;;3.86;77.51;98927.84;5047640;28;20041;-78
2022/12/04 11:52:41;;;;;;;54.08;28.13;;;;;;;3.82;77.77;98931.25;5049075;28;20124;-78